createdAt,value
2023-04-20T00:00:34.329Z,48.44
2023-04-20T00:03:02.200Z,48.16
2023-04-20T00:05:30.934Z,48.73
2023-04-20T00:07:58.889Z,48.71
2023-04-20T00:10:26.519Z,48.74
2023-04-20T00:12:54.193Z,49.10
2023-04-20T00:15:21.818Z,48.80
2023-04-20T00:17:50.146Z,48.78
2023-04-20T00:20:19.853Z,49.13
2023-04-20T00:22:47.514Z,48.83
2023-04-20T00:25:15.226Z,48.97
2023-04-20T00:27:42.994Z,49.04
2023-04-20T00:30:10.981Z,49.24
2023-04-20T00:32:39.136Z,49.32
2023-04-20T00:35:06.962Z,49.42
2023-04-20T00:37:34.629Z,49.08
2023-04-20T00:40:02.396Z,49.23
2023-04-20T00:42:30.833Z,49.17
2023-04-20T00:44:58.413Z,49.61
2023-04-20T00:47:26.329Z,49.11
2023-04-20T00:49:54.049Z,49.43
2023-04-20T00:52:21.739Z,49.39
2023-04-20T00:54:49.763Z,49.46
2023-04-20T00:57:17.857Z,49.59
2023-04-20T00:59:45.518Z,49.56
2023-04-20T01:02:13.175Z,49.77
2023-04-20T01:04:41.539Z,49.77
2023-04-20T01:07:09.537Z,49.73
2023-04-20T01:09:37.574Z,49.86
2023-04-20T01:12:05.256Z,49.80
2023-04-20T01:14:32.866Z,49.94
2023-04-20T01:17:00.487Z,49.54
2023-04-20T01:19:28.661Z,50.38
2023-04-20T01:21:56.299Z,49.84
2023-04-20T01:24:23.869Z,50.14
2023-04-20T01:26:51.969Z,50.16
2023-04-20T01:29:19.727Z,50.10
2023-04-20T01:31:47.836Z,50.29
2023-04-20T01:34:15.501Z,50.33
2023-04-20T01:36:43.092Z,50.42
2023-04-20T01:39:10.715Z,50.40
2023-04-20T01:41:38.381Z,50.33
2023-04-20T01:44:06.333Z,50.18
2023-04-20T01:46:34.117Z,50.61
2023-04-20T01:49:02.195Z,50.56
2023-04-20T01:51:29.815Z,50.54
2023-04-20T01:53:57.461Z,50.68
2023-04-20T01:56:25.351Z,50.67
2023-04-20T01:58:52.984Z,50.51
2023-04-20T02:01:20.715Z,50.39
2023-04-20T02:03:49.742Z,50.56
2023-04-20T02:06:17.660Z,50.78
2023-04-20T02:08:45.518Z,50.75
2023-04-20T02:11:23.908Z,50.75
2023-04-20T02:13:51.757Z,51.30
2023-04-20T02:16:21.917Z,51.04
2023-04-20T02:18:49.948Z,51.15
2023-04-20T02:21:17.598Z,51.18
2023-04-20T02:23:45.224Z,51.59
2023-04-20T02:26:12.902Z,51.14
2023-04-20T02:28:40.661Z,51.48
2023-04-20T02:31:08.731Z,51.42
2023-04-20T02:33:36.616Z,51.80
2023-04-20T02:36:04.260Z,51.70
2023-04-20T02:38:32.166Z,51.88
2023-04-20T02:40:59.866Z,51.53
2023-04-20T02:43:27.887Z,51.75
2023-04-20T02:45:55.528Z,51.58
2023-04-20T02:48:23.384Z,51.88
2023-04-20T02:50:50.994Z,51.58
2023-04-20T02:53:18.626Z,52.11
2023-04-20T02:55:46.926Z,51.71
2023-04-20T02:58:14.598Z,51.91
2023-04-20T03:00:42.236Z,51.99
2023-04-20T03:03:10.049Z,51.98
2023-04-20T03:05:37.781Z,51.83
2023-04-20T03:08:07.797Z,51.87
2023-04-20T03:10:35.745Z,51.84
2023-04-20T03:13:03.652Z,51.86
2023-04-20T03:15:31.305Z,51.76
2023-04-20T03:17:59.518Z,52.09
2023-04-20T03:20:27.828Z,51.56
2023-04-20T03:22:55.471Z,52.16
2023-04-20T03:25:23.365Z,52.15
2023-04-20T03:27:51.003Z,52.18
2023-04-20T03:30:18.691Z,51.58
2023-04-20T03:32:46.936Z,52.18
2023-04-20T03:35:14.610Z,52.20
2023-04-20T03:37:42.424Z,52.45
2023-04-20T03:40:10.588Z,52.19
2023-04-20T03:42:38.593Z,52.52
2023-04-20T03:45:06.842Z,52.67
2023-04-20T03:47:34.613Z,52.69
2023-04-20T03:50:02.279Z,52.97
2023-04-20T03:52:29.979Z,53.06
2023-04-20T03:54:57.654Z,53.09
2023-04-20T03:57:25.609Z,53.67
2023-04-20T03:59:53.265Z,53.41
2023-04-20T04:02:22.883Z,53.43
2023-04-20T04:04:50.784Z,53.56
2023-04-20T04:07:18.521Z,53.92
2023-04-20T04:09:46.614Z,53.80
2023-04-20T04:12:14.245Z,54.45
2023-04-20T04:14:41.900Z,54.66
2023-04-20T04:17:09.718Z,54.78
2023-04-20T04:19:37.468Z,54.92
2023-04-20T04:22:05.426Z,54.88
2023-04-20T04:24:33.545Z,55.16
2023-04-20T04:27:02.356Z,54.66
2023-04-20T04:29:30.100Z,55.28
2023-04-20T04:31:58.666Z,55.39
2023-04-20T04:34:30.319Z,56.09
2023-04-20T04:36:58.115Z,55.67
2023-04-20T04:39:26.044Z,56.00
2023-04-20T04:41:53.757Z,56.20
2023-04-20T04:44:21.458Z,56.21
2023-04-20T04:46:49.983Z,56.37
2023-04-20T04:49:18.076Z,56.57
2023-04-20T04:51:46.016Z,56.99
2023-04-20T04:54:13.711Z,57.12
2023-04-20T04:56:41.545Z,57.29
2023-04-20T04:59:09.652Z,57.12
2023-04-20T05:01:37.578Z,56.93
2023-04-20T05:04:05.702Z,57.29
2023-04-20T05:06:34.001Z,57.20
2023-04-20T05:09:02.408Z,57.06
2023-04-20T05:11:30.213Z,57.67
2023-04-20T05:13:57.950Z,57.70
2023-04-20T05:16:26.008Z,58.02
2023-04-20T05:18:53.973Z,58.25
2023-04-20T05:21:21.674Z,58.63
2023-04-20T05:23:50.028Z,58.89
2023-04-20T05:26:17.750Z,59.09
2023-04-20T05:28:45.511Z,59.29
2023-04-20T05:31:13.390Z,59.64
2023-04-20T05:33:41.364Z,59.80
2023-04-20T05:36:09.432Z,60.26
2023-04-20T05:38:37.260Z,60.00
2023-04-20T05:41:05.366Z,60.23
2023-04-20T05:43:33.324Z,60.74
2023-04-20T05:46:01.209Z,61.66
2023-04-20T05:48:30.137Z,61.74
2023-04-20T05:50:58.476Z,61.55
2023-04-20T05:53:26.459Z,61.84
2023-04-20T05:55:54.075Z,62.86
2023-04-20T05:58:21.761Z,62.74
2023-04-20T06:00:49.866Z,62.87
2023-04-20T06:03:18.076Z,62.70
2023-04-20T06:05:46.134Z,62.98
2023-04-20T06:08:13.995Z,63.22
2023-04-20T06:10:41.658Z,63.15
2023-04-20T06:13:10.106Z,63.38
2023-04-20T06:15:37.922Z,63.55
2023-04-20T06:18:06.046Z,63.75
2023-04-20T06:20:33.743Z,64.33
2023-04-20T06:23:01.470Z,63.91
2023-04-20T06:25:29.550Z,63.93
2023-04-20T06:27:57.215Z,63.64
2023-04-20T06:30:24.942Z,63.73
2023-04-20T06:32:52.705Z,64.18
2023-04-20T06:35:20.727Z,63.31
2023-04-20T06:37:48.798Z,64.38
2023-04-20T06:40:16.550Z,63.93
2023-04-20T06:42:44.382Z,64.19
2023-04-20T06:45:12.097Z,64.04
2023-04-20T06:47:39.802Z,63.92
2023-04-20T06:50:10.212Z,63.76
2023-04-20T06:52:38.015Z,63.38
2023-04-20T06:55:05.931Z,63.46
2023-04-20T06:57:33.953Z,63.34
2023-04-20T07:00:01.761Z,63.74
2023-04-20T07:02:30.141Z,63.35
2023-04-20T07:04:58.024Z,63.37
2023-04-20T07:07:25.933Z,63.35
2023-04-20T07:09:53.686Z,63.16
2023-04-20T07:12:21.292Z,62.88
2023-04-20T07:14:49.555Z,62.99
2023-04-20T07:17:17.292Z,62.92
2023-04-20T07:19:46.299Z,63.00
2023-04-20T07:22:14.013Z,63.06
2023-04-20T07:24:41.773Z,63.10
2023-04-20T07:27:09.996Z,63.26
2023-04-20T07:29:37.747Z,62.87
2023-04-20T07:32:05.580Z,63.53
2023-04-20T07:34:33.231Z,63.52
2023-04-20T07:37:00.973Z,63.45
2023-04-20T07:39:30.795Z,63.85
2023-04-20T07:41:59.055Z,63.89
2023-04-20T07:44:27.121Z,63.41
2023-04-20T07:46:57.773Z,64.14
2023-04-20T07:49:25.893Z,63.71
2023-04-20T07:51:56.895Z,63.70
2023-04-20T07:54:32.424Z,63.89
2023-04-20T07:57:00.272Z,63.90
2023-04-20T07:59:27.986Z,64.48
2023-04-20T08:01:57.333Z,64.35
2023-04-20T08:04:25.375Z,64.98
2023-04-20T08:06:53.541Z,65.33
2023-04-20T08:09:21.730Z,64.94
2023-04-20T08:11:49.752Z,65.31
2023-04-20T08:14:18.152Z,65.16
2023-04-20T08:16:46.267Z,65.16
2023-04-20T08:21:42.928Z,65.61
2023-04-20T08:24:11.122Z,65.06
2023-04-20T08:26:39.587Z,64.52
2023-04-20T08:29:07.374Z,64.08
2023-04-20T08:31:35.590Z,63.64
2023-04-20T08:34:03.673Z,63.13
2023-04-20T08:36:32.459Z,63.28
2023-04-20T08:39:00.308Z,62.69
2023-04-20T08:41:28.226Z,62.41
2023-04-20T08:43:56.279Z,62.68
2023-04-20T08:46:24.446Z,63.15
2023-04-20T08:48:52.203Z,62.90
2023-04-20T08:51:20.198Z,62.52
2023-04-20T08:53:47.902Z,62.70
2023-04-20T08:56:15.821Z,62.14
2023-04-20T08:58:43.514Z,62.21
2023-04-20T09:01:11.853Z,62.33
2023-04-20T09:03:41.435Z,62.18
2023-04-20T09:06:09.156Z,62.21
2023-04-20T09:08:38.422Z,62.08
2023-04-20T09:11:06.217Z,62.30
2023-04-20T09:13:33.986Z,62.82
2023-04-20T09:16:01.746Z,62.95
2023-04-20T09:18:29.512Z,63.59
2023-04-20T09:20:57.576Z,63.37
2023-04-20T09:23:25.246Z,63.79
2023-04-20T09:25:53.502Z,62.83
2023-04-20T09:28:21.554Z,63.09
2023-04-20T09:30:49.420Z,62.35
2023-04-20T09:33:19.031Z,61.94
2023-04-20T09:35:46.782Z,60.84
2023-04-20T09:38:14.531Z,60.37
2023-04-20T09:40:42.760Z,59.75
2023-04-20T09:43:10.594Z,58.83
2023-04-20T09:45:38.597Z,58.63
2023-04-20T09:48:06.812Z,59.16
2023-04-20T09:50:45.654Z,58.57
2023-04-20T09:53:16.591Z,58.36
2023-04-20T09:55:44.352Z,58.54
2023-04-20T09:58:12.076Z,58.75
2023-04-20T10:00:39.898Z,58.75
2023-04-20T10:03:09.394Z,58.99
2023-04-20T10:05:40.046Z,59.11
2023-04-20T10:08:07.962Z,59.40
2023-04-20T10:10:36.281Z,60.45
2023-04-20T10:13:04.197Z,59.73
2023-04-20T10:15:32.334Z,59.96
2023-04-20T10:18:00.604Z,59.46
2023-04-20T10:20:28.679Z,59.11
2023-04-20T10:22:56.640Z,59.10
2023-04-20T10:25:24.514Z,58.51
2023-04-20T10:27:52.285Z,58.69
2023-04-20T10:30:20.607Z,58.94
2023-04-20T10:32:48.652Z,58.51
2023-04-20T10:35:16.637Z,58.95
2023-04-20T10:37:44.835Z,58.78
2023-04-20T10:40:12.697Z,58.14
2023-04-20T10:42:40.830Z,57.79
2023-04-20T10:45:09.074Z,57.39
2023-04-20T10:47:38.275Z,57.70
2023-04-20T10:50:06.783Z,58.10
2023-04-20T10:52:35.458Z,57.68
2023-04-20T10:55:04.043Z,56.73
2023-04-20T10:57:32.371Z,56.18
2023-04-20T11:00:00.333Z,55.82
2023-04-20T11:02:28.584Z,54.94
2023-04-20T11:05:01.277Z,55.05
2023-04-20T11:07:29.872Z,53.98
2023-04-20T11:09:58.199Z,53.25
2023-04-20T11:12:26.194Z,53.80
2023-04-20T11:14:54.100Z,53.77
2023-04-20T11:17:22.394Z,54.34
2023-04-20T11:19:52.436Z,54.50
2023-04-20T11:22:20.313Z,54.36
2023-04-20T11:24:48.283Z,54.84
2023-04-20T11:27:16.297Z,54.55
2023-04-20T11:29:44.121Z,54.78
2023-04-20T11:32:12.413Z,53.98
2023-04-20T11:34:40.692Z,52.88
2023-04-20T11:37:08.686Z,50.13
2023-04-20T11:39:37.103Z,47.70
2023-04-20T11:42:05.166Z,45.75
2023-04-20T11:44:33.519Z,44.03
2023-04-20T11:47:02.158Z,43.75
2023-04-20T11:49:30.082Z,42.57
2023-04-20T11:51:58.133Z,41.46
2023-04-20T11:54:27.448Z,40.57
2023-04-20T11:56:55.840Z,39.22
2023-04-20T11:59:23.958Z,39.33
2023-04-20T12:01:52.867Z,40.80
2023-04-20T12:04:21.230Z,42.70
2023-04-20T12:06:49.315Z,43.97
2023-04-20T12:09:17.921Z,44.42
2023-04-20T12:11:46.553Z,42.80
2023-04-20T12:14:14.369Z,43.29
2023-04-20T12:16:42.108Z,43.01
2023-04-20T12:19:10.064Z,41.31
2023-04-20T12:21:38.716Z,40.86
2023-04-20T12:24:07.157Z,41.23
2023-04-20T12:26:38.772Z,41.71
2023-04-20T12:29:07.454Z,41.16
2023-04-20T12:31:35.961Z,41.70
2023-04-20T12:34:04.353Z,41.19
2023-04-20T12:36:35.255Z,40.19
2023-04-20T12:39:03.909Z,39.13
2023-04-20T12:41:31.655Z,39.72
2023-04-20T12:43:59.689Z,40.46
2023-04-20T12:46:27.885Z,41.85
2023-04-20T12:48:56.491Z,43.67
2023-04-20T12:51:24.358Z,45.21
2023-04-20T12:53:52.259Z,46.11
2023-04-20T12:56:20.292Z,46.92
2023-04-20T12:58:48.775Z,47.80
2023-04-20T13:01:16.847Z,48.64
2023-04-20T13:03:45.210Z,48.76
2023-04-20T13:06:14.510Z,49.24
2023-04-20T13:08:42.542Z,49.88
2023-04-20T13:11:12.744Z,49.32
2023-04-20T13:13:40.910Z,48.93
2023-04-20T13:16:08.743Z,47.94
2023-04-20T13:18:36.754Z,46.30
2023-04-20T13:21:04.537Z,45.11
2023-04-20T13:23:32.698Z,45.34
2023-04-20T13:26:02.341Z,45.69
2023-04-20T13:28:30.138Z,45.47
2023-04-20T13:30:58.377Z,45.81
2023-04-20T13:33:26.283Z,45.68
2023-04-20T13:35:54.645Z,46.29
2023-04-20T13:38:22.811Z,47.10
2023-04-20T13:40:51.145Z,47.10
2023-04-20T13:43:21.341Z,47.20
2023-04-20T13:45:49.542Z,47.14
2023-04-20T13:48:18.713Z,47.66
2023-04-20T13:50:47.743Z,47.90
2023-04-20T13:53:15.620Z,48.46
2023-04-20T13:55:43.779Z,48.15
2023-04-20T13:58:11.588Z,48.36
2023-04-20T14:00:39.866Z,48.60
2023-04-20T14:03:08.595Z,48.65
2023-04-20T14:05:36.615Z,48.65
2023-04-20T14:08:04.569Z,47.12
2023-04-20T14:10:33.087Z,44.92
2023-04-20T14:13:02.243Z,44.05
2023-04-20T14:15:30.210Z,43.70
2023-04-20T14:17:58.624Z,43.95
2023-04-20T14:20:26.447Z,44.48
2023-04-20T14:22:54.329Z,45.41
2023-04-20T14:25:22.804Z,45.80
2023-04-20T14:27:50.807Z,46.05
2023-04-20T14:30:18.591Z,46.19
2023-04-20T14:32:46.791Z,46.24
2023-04-20T14:35:14.671Z,45.86
2023-04-20T14:37:43.084Z,45.67
2023-04-20T14:40:11.119Z,46.45
2023-04-20T14:42:38.888Z,45.96
2023-04-20T14:45:06.962Z,45.64
2023-04-20T14:47:35.040Z,44.68
2023-04-20T14:50:03.266Z,44.32
2023-04-20T14:52:31.477Z,44.46
2023-04-20T14:54:59.953Z,44.68
2023-04-20T14:57:27.992Z,44.93
2023-04-20T14:59:55.799Z,45.00
2023-04-20T15:02:24.386Z,44.99
2023-04-20T15:04:52.844Z,45.37
2023-04-20T15:07:21.009Z,45.44
2023-04-20T15:09:48.987Z,45.79
2023-04-20T15:12:16.822Z,46.41
2023-04-20T15:14:45.462Z,46.58
2023-04-20T15:17:15.389Z,46.98
2023-04-20T15:19:46.329Z,46.35
2023-04-20T15:22:14.161Z,44.35
2023-04-20T15:24:42.077Z,43.27
2023-04-20T15:27:10.652Z,44.04
2023-04-20T15:29:38.771Z,44.42
2023-04-20T15:32:06.754Z,43.25
2023-04-20T15:34:34.560Z,41.42
2023-04-20T15:37:02.459Z,40.03
2023-04-20T15:39:31.625Z,38.73
2023-04-20T15:42:00.211Z,37.41
2023-04-20T15:44:28.096Z,36.73
2023-04-20T15:46:56.245Z,35.84
2023-04-20T15:49:24.134Z,36.43
2023-04-20T15:51:52.377Z,38.19
2023-04-20T15:54:24.070Z,39.43
2023-04-20T15:56:52.266Z,39.52
2023-04-20T15:59:20.179Z,39.10
2023-04-20T16:01:48.250Z,39.79
2023-04-20T16:04:17.898Z,40.54
2023-04-20T16:06:46.249Z,41.71
2023-04-20T16:09:14.307Z,43.48
2023-04-20T16:11:42.085Z,44.28
2023-04-20T16:14:09.901Z,45.20
2023-04-20T16:16:38.508Z,45.13
2023-04-20T16:19:06.788Z,46.33
2023-04-20T16:21:35.110Z,46.48
2023-04-20T16:24:03.086Z,47.16
2023-04-20T16:26:31.009Z,48.35
2023-04-20T16:28:59.442Z,48.47
2023-04-20T16:31:27.717Z,49.28
2023-04-20T16:33:55.668Z,50.06
2023-04-20T16:36:23.481Z,50.41
2023-04-20T16:38:51.329Z,50.75
2023-04-20T16:41:19.621Z,51.47
2023-04-20T16:43:49.001Z,51.59
2023-04-20T16:46:19.385Z,52.17
2023-04-20T16:48:47.408Z,52.81
2023-04-20T16:51:15.379Z,52.92
2023-04-20T16:53:43.763Z,54.17
2023-04-20T16:56:12.326Z,54.22
2023-04-20T16:58:40.246Z,55.27
2023-04-20T17:01:08.306Z,55.32
2023-04-20T17:03:36.442Z,55.62
2023-04-20T17:06:08.065Z,55.66
2023-04-20T17:08:37.760Z,55.89
2023-04-20T17:11:05.670Z,55.67
2023-04-20T17:13:33.566Z,55.96
2023-04-20T17:16:01.616Z,56.61
2023-04-20T17:18:29.887Z,56.22
2023-04-20T17:20:58.849Z,56.38
2023-04-20T17:23:26.801Z,56.45
2023-04-20T17:25:54.971Z,56.65
2023-04-20T17:28:23.167Z,56.30
2023-04-20T17:30:51.117Z,56.42
2023-04-20T17:33:18.876Z,56.57
2023-04-20T17:35:46.788Z,57.00
2023-04-20T17:38:14.947Z,56.44
2023-04-20T17:40:42.720Z,56.76
2023-04-20T17:43:12.212Z,56.88
2023-04-20T17:45:40.712Z,56.84
2023-04-20T17:48:09.130Z,57.10
2023-04-20T17:50:37.462Z,57.03
2023-04-20T17:53:07.189Z,56.93
2023-04-20T17:55:35.946Z,56.73
2023-04-20T17:58:04.422Z,56.79
2023-04-20T18:00:32.308Z,56.84
2023-04-20T18:03:00.454Z,56.91
2023-04-20T18:05:28.468Z,57.31
2023-04-20T18:07:57.199Z,57.10
2023-04-20T18:10:25.189Z,57.47
2023-04-20T18:12:53.989Z,57.25
2023-04-20T18:15:22.013Z,57.49
2023-04-20T18:17:49.850Z,57.64
2023-04-20T18:20:20.027Z,57.30
2023-04-20T18:22:50.640Z,57.48
2023-04-20T18:25:19.568Z,57.51
2023-04-20T18:27:47.544Z,57.65
2023-04-20T18:30:15.528Z,58.12
2023-04-20T18:32:44.038Z,58.13
2023-04-20T18:35:13.788Z,58.25
2023-04-20T18:37:41.770Z,58.32
2023-04-20T18:40:09.679Z,58.02
2023-04-20T18:42:37.670Z,58.58
2023-04-20T18:45:06.753Z,59.04
2023-04-20T18:47:34.865Z,59.07
2023-04-20T18:50:02.872Z,58.91
2023-04-20T18:52:30.819Z,59.41
2023-04-20T18:54:58.586Z,59.97
2023-04-20T18:57:29.386Z,59.13
2023-04-20T18:59:57.587Z,59.80
2023-04-20T19:02:25.654Z,59.85
2023-04-20T19:04:53.611Z,60.01
2023-04-20T19:07:21.521Z,60.08
2023-04-20T19:09:49.938Z,60.11
2023-04-20T19:12:17.810Z,60.59
2023-04-20T19:14:47.065Z,60.64
2023-04-20T19:17:16.860Z,60.96
2023-04-20T19:19:45.195Z,60.73
2023-04-20T19:22:13.444Z,60.96
2023-04-20T19:24:41.467Z,61.21
2023-04-20T19:27:09.467Z,61.29
2023-04-20T19:29:37.392Z,61.22
2023-04-20T19:32:05.226Z,61.84
2023-04-20T19:34:33.443Z,61.64
2023-04-20T19:37:02.037Z,61.71
2023-04-20T19:39:30.389Z,61.63
2023-04-20T19:41:59.133Z,61.69
2023-04-20T19:44:28.369Z,62.15
2023-04-20T19:46:56.167Z,61.85
2023-04-20T19:49:24.008Z,61.78
2023-04-20T19:51:52.017Z,62.15
2023-04-20T19:54:19.882Z,62.22
2023-04-20T19:56:47.811Z,62.00
2023-04-20T19:59:16.591Z,61.79
2023-04-20T20:01:44.859Z,61.78
2023-04-20T20:04:13.240Z,61.70
2023-04-20T20:06:41.400Z,61.62
2023-04-20T20:09:09.471Z,62.28
2023-04-20T20:11:37.547Z,62.32
2023-04-20T20:14:05.912Z,62.10
2023-04-20T20:16:34.568Z,61.92
2023-04-20T20:19:02.521Z,62.34
2023-04-20T20:21:30.398Z,62.59
2023-04-20T20:23:58.691Z,62.45
2023-04-20T20:26:28.797Z,62.68
2023-04-20T20:28:57.046Z,62.64
2023-04-20T20:31:24.944Z,62.81
2023-04-20T20:33:52.940Z,63.13
2023-04-20T20:36:21.286Z,63.19
2023-04-20T20:38:49.532Z,63.47
2023-04-20T20:41:18.553Z,63.41
2023-04-20T20:43:46.556Z,63.72
2023-04-20T20:46:14.367Z,63.80
2023-04-20T20:48:42.923Z,63.71
2023-04-20T20:51:11.747Z,64.23
2023-04-20T20:53:39.610Z,64.54
2023-04-20T20:56:07.542Z,63.90
2023-04-20T20:58:35.591Z,64.32
2023-04-20T21:01:03.843Z,64.13
2023-04-20T21:03:32.156Z,64.26
2023-04-20T21:06:00.326Z,64.40
2023-04-20T21:08:28.066Z,64.50
2023-04-20T21:10:56.484Z,64.47
2023-04-20T21:13:24.913Z,64.51
2023-04-20T21:15:52.947Z,64.09
2023-04-20T21:18:21.002Z,64.24
2023-04-20T21:20:48.885Z,64.69
2023-04-20T21:23:16.629Z,64.27
2023-04-20T21:25:44.730Z,64.43
2023-04-20T21:28:12.992Z,64.34
2023-04-20T21:30:40.751Z,64.03
2023-04-20T21:33:08.649Z,64.26
2023-04-20T21:35:37.088Z,64.20
2023-04-20T21:38:05.607Z,63.87
2023-04-20T21:40:34.608Z,64.14
2023-04-20T21:43:02.527Z,64.17
2023-04-20T21:45:30.270Z,63.38
2023-04-20T21:47:58.151Z,63.74
2023-04-20T21:50:27.965Z,64.05
2023-04-20T21:52:55.707Z,63.94
2023-04-20T21:55:23.799Z,63.87
2023-04-20T21:57:51.684Z,63.87
2023-04-20T22:00:20.069Z,63.44
2023-04-20T22:02:50.249Z,64.04
2023-04-20T22:05:18.567Z,63.62
2023-04-20T22:07:46.920Z,63.46
2023-04-20T22:10:14.586Z,63.41
2023-04-20T22:12:42.548Z,63.29
2023-04-20T22:15:10.872Z,63.20
2023-04-20T22:17:39.904Z,63.32
2023-04-20T22:20:09.461Z,63.14
2023-04-20T22:22:37.249Z,63.74
2023-04-20T22:25:04.914Z,63.39
2023-04-20T22:27:32.983Z,63.88
2023-04-20T22:30:00.660Z,63.91
2023-04-20T22:32:28.369Z,63.71
2023-04-20T22:34:56.116Z,63.70
2023-04-20T22:37:23.780Z,64.07
2023-04-20T22:39:51.747Z,63.91
2023-04-20T22:42:19.509Z,64.43
2023-04-20T22:44:47.214Z,64.12
2023-04-20T22:47:14.848Z,64.12
2023-04-20T22:49:42.812Z,64.47
2023-04-20T22:52:11.454Z,64.34
2023-04-20T22:54:39.117Z,64.35
2023-04-20T22:57:06.882Z,64.88
2023-04-20T22:59:34.534Z,64.94
2023-04-20T23:02:02.345Z,64.86
2023-04-20T23:04:31.926Z,64.70
2023-04-20T23:06:59.777Z,64.82
2023-04-20T23:09:27.430Z,64.52
2023-04-20T23:11:55.165Z,64.97
2023-04-20T23:14:22.854Z,64.85
2023-04-20T23:16:51.082Z,65.24
2023-04-20T23:19:19.078Z,64.61
2023-04-20T23:21:46.866Z,64.85
2023-04-20T23:24:14.967Z,64.50
2023-04-20T23:26:43.023Z,64.92
2023-04-20T23:29:11.012Z,64.72
2023-04-20T23:31:38.709Z,65.13
2023-04-20T23:34:06.446Z,65.04
2023-04-20T23:36:34.099Z,65.06
2023-04-20T23:39:01.706Z,64.84
2023-04-20T23:41:29.722Z,64.77
2023-04-20T23:43:57.530Z,64.91
2023-04-20T23:46:25.730Z,64.86
2023-04-20T23:48:55.610Z,64.71
2023-04-20T23:51:23.299Z,64.86
2023-04-20T23:53:51.576Z,64.60
2023-04-20T23:56:19.295Z,64.73
2023-04-20T23:58:46.962Z,64.76
